createdAt,value
2018-06-16T00:00:39.420Z,5.03
2018-06-16T00:03:08.785Z,5.05
2018-06-16T00:05:38.125Z,4.65
2018-06-16T00:08:07.482Z,5.10
2018-06-16T00:10:36.934Z,4.97
2018-06-16T00:13:06.333Z,5.08
2018-06-16T00:15:35.733Z,5.42
2018-06-16T00:18:05.162Z,5.33
2018-06-16T00:20:34.494Z,4.80
2018-06-16T00:23:03.889Z,4.67
2018-06-16T00:25:33.250Z,4.90
2018-06-16T00:28:02.690Z,4.62
2018-06-16T00:30:32.032Z,4.75
2018-06-16T00:33:01.359Z,5.17
2018-06-16T00:35:30.722Z,5.17
2018-06-16T00:38:00.112Z,5.20
2018-06-16T00:40:29.480Z,5.10
2018-06-16T00:42:58.831Z,5.55
2018-06-16T00:45:28.201Z,4.72
2018-06-16T00:47:57.557Z,5.10
2018-06-16T00:50:26.906Z,5.22
2018-06-16T00:52:56.362Z,5.42
2018-06-16T00:55:25.730Z,5.33
2018-06-16T00:57:55.078Z,5.75
2018-06-16T01:00:24.465Z,6.28
2018-06-16T01:02:53.869Z,5.65
2018-06-16T01:05:23.204Z,6.05
2018-06-16T01:07:52.540Z,6.00
2018-06-16T01:10:21.900Z,6.62
2018-06-16T01:12:51.258Z,5.20
2018-06-16T01:15:20.593Z,6.30
2018-06-16T01:17:49.924Z,6.37
2018-06-16T01:20:19.300Z,5.87
2018-06-16T01:22:49.222Z,5.75
2018-06-16T01:25:18.700Z,5.78
2018-06-16T01:27:48.123Z,5.55
2018-06-16T01:30:17.533Z,6.20
2018-06-16T01:32:46.938Z,5.05
2018-06-16T01:35:16.462Z,5.92
2018-06-16T01:37:45.953Z,5.70
2018-06-16T01:40:15.327Z,5.83
2018-06-16T01:42:44.727Z,5.87
2018-06-16T01:45:14.423Z,5.60
2018-06-16T01:47:43.829Z,5.97
2018-06-16T01:50:13.390Z,6.72
2018-06-16T01:52:42.726Z,7.22
2018-06-16T01:55:12.204Z,7.50
2018-06-16T01:57:41.604Z,7.40
2018-06-16T02:00:11.635Z,6.28
2018-06-16T02:02:41.064Z,6.62
2018-06-16T02:05:10.408Z,6.20
2018-06-16T02:07:39.763Z,6.55
2018-06-16T02:10:08.788Z,6.72
2018-06-16T02:12:38.109Z,7.30
2018-06-16T02:15:08.277Z,5.95
2018-06-16T02:17:37.673Z,6.25
2018-06-16T02:20:07.173Z,6.60
2018-06-16T02:22:36.521Z,5.62
2018-06-16T02:25:06.140Z,5.70
2018-06-16T02:27:35.500Z,6.20
2018-06-16T02:30:04.952Z,5.47
2018-06-16T02:32:34.289Z,5.42
2018-06-16T02:35:03.618Z,5.90
2018-06-16T02:37:32.981Z,5.95
2018-06-16T02:40:02.340Z,5.53
2018-06-16T02:42:31.700Z,6.08
2018-06-16T02:45:01.014Z,6.97
2018-06-16T02:47:30.346Z,6.37
2018-06-16T02:49:59.677Z,6.58
2018-06-16T02:52:29.009Z,6.00
2018-06-16T02:54:58.337Z,6.15
2018-06-16T02:57:27.756Z,5.72
2018-06-16T02:59:57.109Z,5.87
2018-06-16T03:02:26.484Z,6.22
2018-06-16T03:04:55.834Z,6.15
2018-06-16T03:07:25.157Z,6.10
2018-06-16T03:09:54.902Z,6.05
2018-06-16T03:12:24.221Z,6.00
2018-06-16T03:14:53.571Z,5.80
2018-06-16T03:17:22.926Z,5.70
2018-06-16T03:19:52.346Z,5.70
2018-06-16T03:22:21.676Z,5.97
2018-06-16T03:24:51.001Z,5.42
2018-06-16T03:27:20.360Z,5.83
2018-06-16T03:29:49.701Z,5.80
2018-06-16T03:32:19.113Z,5.83
2018-06-16T03:34:48.492Z,5.75
2018-06-16T03:37:17.818Z,5.50
2018-06-16T03:39:47.170Z,5.40
2018-06-16T03:42:16.493Z,5.75
2018-06-16T03:44:45.900Z,5.25
2018-06-16T03:47:15.259Z,5.92
2018-06-16T03:49:44.585Z,5.92
2018-06-16T03:52:13.909Z,6.33
2018-06-16T03:54:43.396Z,5.78
2018-06-16T03:57:12.729Z,5.45
2018-06-16T03:59:42.166Z,6.35
2018-06-16T04:02:11.508Z,5.83
2018-06-16T04:04:40.845Z,5.67
2018-06-16T04:07:10.299Z,6.60
2018-06-16T04:09:39.761Z,5.97
2018-06-16T04:12:09.181Z,6.30
2018-06-16T04:14:38.525Z,6.53
2018-06-16T04:17:22.154Z,6.30
2018-06-16T04:19:52.606Z,6.03
2018-06-16T04:22:22.345Z,6.12
2018-06-16T04:24:51.686Z,6.42
2018-06-16T04:27:21.047Z,6.53
2018-06-16T04:29:50.436Z,6.42
2018-06-16T04:32:19.907Z,5.95
2018-06-16T04:34:49.338Z,5.58
2018-06-16T04:37:18.642Z,5.67
2018-06-16T04:39:47.964Z,6.20
2018-06-16T04:42:17.384Z,5.97
2018-06-16T04:44:46.716Z,6.12
2018-06-16T04:47:16.144Z,6.28
2018-06-16T04:49:45.477Z,6.03
2018-06-16T04:52:14.825Z,5.72
2018-06-16T04:54:44.126Z,6.08
2018-06-16T04:57:13.465Z,6.22
2018-06-16T04:59:42.784Z,5.72
2018-06-16T05:02:12.241Z,5.42
2018-06-16T05:04:41.280Z,5.90
2018-06-16T05:07:10.713Z,6.55
2018-06-16T05:09:40.243Z,5.87
2018-06-16T05:12:09.802Z,5.92
2018-06-16T05:14:39.138Z,5.72
2018-06-16T05:17:08.526Z,5.50
2018-06-16T05:19:38.028Z,5.50
2018-06-16T05:22:07.448Z,6.40
2018-06-16T05:24:36.813Z,5.92
2018-06-16T05:27:06.249Z,5.50
2018-06-16T05:29:36.595Z,5.67
2018-06-16T05:32:06.010Z,6.15
2018-06-16T05:34:35.422Z,5.47
2018-06-16T05:37:06.286Z,6.20
2018-06-16T05:39:35.635Z,6.00
2018-06-16T05:42:05.084Z,5.72
2018-06-16T05:44:34.826Z,5.95
2018-06-16T05:47:04.298Z,6.15
2018-06-16T05:49:33.619Z,5.62
2018-06-16T05:52:02.954Z,6.35
2018-06-16T05:54:32.843Z,6.05
2018-06-16T05:57:02.181Z,6.85
2018-06-16T05:59:31.632Z,5.97
2018-06-16T06:02:00.977Z,6.50
2018-06-16T06:04:30.353Z,6.03
2018-06-16T06:06:59.731Z,6.42
2018-06-16T06:09:29.313Z,6.90
2018-06-16T06:11:58.893Z,6.45
2018-06-16T06:14:28.354Z,6.87
2018-06-16T06:16:57.737Z,6.15
2018-06-16T06:19:27.069Z,7.03
2018-06-16T06:21:56.564Z,6.33
2018-06-16T06:24:26.143Z,6.53
2018-06-16T06:26:55.473Z,5.95
2018-06-16T06:29:25.029Z,6.05
2018-06-16T06:31:54.579Z,6.58
2018-06-16T06:34:24.051Z,6.00
2018-06-16T06:36:53.550Z,7.12
2018-06-16T06:39:23.075Z,6.53
2018-06-16T06:41:52.587Z,6.55
2018-06-16T06:44:22.063Z,7.17
2018-06-16T06:46:51.504Z,7.37
2018-06-16T06:49:21.121Z,5.92
2018-06-16T06:51:51.055Z,6.65
2018-06-16T06:54:20.137Z,6.83
2018-06-16T06:56:49.497Z,7.62
2018-06-16T06:59:18.817Z,7.83
2018-06-16T07:01:48.179Z,7.40
2018-06-16T07:04:17.681Z,7.37
2018-06-16T07:06:47.227Z,6.17
2018-06-16T07:09:17.093Z,7.10
2018-06-16T07:11:46.702Z,6.78
2018-06-16T07:14:15.844Z,7.53
2018-06-16T07:16:45.212Z,7.05
2018-06-16T07:19:14.784Z,7.17
2018-06-16T07:21:44.783Z,7.97
2018-06-16T07:24:14.213Z,7.12
2018-06-16T07:26:43.550Z,7.97
2018-06-16T07:29:12.949Z,7.47
2018-06-16T07:31:42.825Z,7.55
2018-06-16T07:34:12.210Z,7.40
2018-06-16T07:36:41.255Z,7.45
2018-06-16T07:39:11.304Z,6.85
2018-06-16T07:41:40.737Z,7.20
2018-06-16T07:44:10.180Z,7.30
2018-06-16T07:46:39.548Z,7.65
2018-06-16T07:49:09.569Z,7.70
2018-06-16T07:51:39.038Z,7.08
2018-06-16T07:54:08.530Z,6.65
2018-06-16T07:56:38.757Z,7.10
2018-06-16T07:59:08.127Z,7.28
2018-06-16T08:01:37.502Z,7.08
2018-06-16T08:04:07.128Z,6.75
2018-06-16T08:06:36.719Z,6.30
2018-06-16T08:09:09.310Z,7.10
2018-06-16T08:11:38.981Z,8.80
2018-06-16T08:14:08.773Z,7.75
2018-06-16T08:16:38.215Z,8.38
2018-06-16T08:19:07.672Z,7.53
2018-06-16T08:21:37.113Z,7.90
2018-06-16T08:24:06.474Z,7.83
2018-06-16T08:26:36.046Z,7.35
2018-06-16T08:29:06.149Z,8.38
2018-06-16T08:31:35.806Z,8.10
2018-06-16T08:34:05.229Z,7.28
2018-06-16T08:36:34.692Z,7.47
2018-06-16T08:39:05.957Z,7.67
2018-06-16T08:41:35.587Z,7.08
2018-06-16T08:44:05.087Z,7.17
2018-06-16T08:46:34.940Z,6.78
2018-06-16T08:49:04.398Z,8.00
2018-06-16T08:51:33.769Z,6.65
2018-06-16T08:54:03.300Z,7.47
2018-06-16T08:56:33.445Z,5.92
2018-06-16T08:59:02.778Z,6.00
2018-06-16T09:01:32.132Z,7.30
2018-06-16T09:04:01.669Z,6.33
2018-06-16T09:06:31.393Z,5.78
2018-06-16T09:09:00.796Z,6.10
2018-06-16T09:11:30.276Z,5.83
2018-06-16T09:13:59.713Z,5.65
2018-06-16T09:16:29.130Z,4.95
2018-06-16T09:18:58.669Z,6.03
2018-06-16T09:21:28.130Z,5.62
2018-06-16T09:23:57.711Z,6.10
2018-06-16T09:26:27.758Z,5.53
2018-06-16T09:28:57.293Z,5.95
2018-06-16T09:31:26.655Z,5.78
2018-06-16T09:33:56.065Z,5.80
2018-06-16T09:36:25.573Z,5.92
2018-06-16T09:38:55.338Z,5.95
2018-06-16T09:41:25.432Z,5.53
2018-06-16T09:43:54.906Z,6.15
2018-06-16T09:46:25.181Z,5.83
2018-06-16T09:48:54.653Z,5.53
2018-06-16T09:51:24.003Z,6.15
2018-06-16T09:53:53.562Z,6.75
2018-06-16T09:56:23.087Z,6.08
2018-06-16T09:58:53.026Z,6.62
2018-06-16T10:01:22.096Z,5.97
2018-06-16T10:03:51.523Z,5.85
2018-06-16T10:06:20.882Z,5.50
2018-06-16T10:08:50.261Z,5.37
2018-06-16T10:11:19.626Z,5.50
2018-06-16T10:13:49.025Z,6.03
2018-06-16T10:16:18.395Z,4.72
2018-06-16T10:18:47.732Z,5.30
2018-06-16T10:21:17.191Z,4.83
2018-06-16T10:23:46.541Z,5.15
2018-06-16T10:26:15.934Z,4.95
2018-06-16T10:28:45.394Z,4.42
2018-06-16T10:31:14.797Z,3.92
2018-06-16T10:33:44.142Z,3.52
2018-06-16T10:36:13.608Z,4.10
2018-06-16T10:38:42.673Z,3.90
2018-06-16T10:41:12.016Z,3.80
2018-06-16T10:43:41.517Z,3.77
2018-06-16T10:46:10.866Z,4.00
2018-06-16T10:48:40.224Z,3.92
2018-06-16T10:51:09.615Z,4.00
2018-06-16T10:53:39.015Z,4.35
2018-06-16T10:56:08.519Z,4.20
2018-06-16T10:58:37.871Z,4.12
2018-06-16T11:01:07.282Z,3.92
2018-06-16T11:03:36.629Z,3.70
2018-06-16T11:06:06.013Z,4.05
2018-06-16T11:08:35.392Z,4.92
2018-06-16T11:11:04.788Z,6.30
2018-06-16T11:13:34.173Z,5.58
2018-06-16T11:16:03.534Z,5.87
2018-06-16T11:18:32.883Z,5.08
2018-06-16T11:21:02.253Z,5.33
2018-06-16T11:23:31.613Z,5.28
2018-06-16T11:26:01.060Z,4.40
2018-06-16T11:28:30.434Z,4.55
2018-06-16T11:30:59.914Z,4.00
2018-06-16T11:33:29.401Z,3.65
2018-06-16T11:35:58.720Z,3.98
2018-06-16T11:38:28.117Z,4.58
2018-06-16T11:40:57.593Z,4.17
2018-06-16T11:43:27.257Z,4.58
2018-06-16T11:45:56.747Z,3.80
2018-06-16T11:48:26.706Z,4.03
2018-06-16T11:50:56.229Z,3.85
2018-06-16T11:53:25.594Z,4.08
2018-06-16T11:55:55.118Z,4.28
2018-06-16T11:58:25.270Z,4.53
2018-06-16T12:00:54.718Z,3.55
2018-06-16T12:03:24.247Z,3.58
2018-06-16T12:05:54.090Z,3.60
2018-06-16T12:08:24.705Z,3.90
2018-06-16T12:10:54.229Z,3.70
2018-06-16T12:13:23.638Z,4.05
2018-06-16T12:15:53.010Z,3.27
2018-06-16T12:18:22.422Z,3.17
2018-06-16T12:20:51.925Z,3.30
2018-06-16T12:23:21.276Z,4.03
2018-06-16T12:25:51.467Z,3.62
2018-06-16T12:28:20.941Z,3.60
2018-06-16T12:30:50.589Z,3.37
2018-06-16T12:33:19.993Z,3.70
2018-06-16T12:35:49.452Z,3.87
2018-06-16T12:38:19.226Z,4.40
2018-06-16T12:40:48.460Z,4.08
2018-06-16T12:43:17.894Z,3.85
2018-06-16T12:45:47.405Z,3.90
2018-06-16T12:48:22.987Z,4.92
2018-06-16T12:50:52.521Z,4.20
2018-06-16T12:53:21.914Z,4.15
2018-06-16T12:55:50.977Z,4.03
2018-06-16T12:58:20.489Z,3.98
2018-06-16T13:00:49.900Z,3.85
2018-06-16T13:03:19.369Z,3.67
2018-06-16T13:05:48.896Z,4.17
2018-06-16T13:08:18.217Z,3.77
2018-06-16T13:10:47.724Z,3.75
2018-06-16T13:13:17.211Z,3.77
2018-06-16T13:15:46.679Z,3.42
2018-06-16T13:18:16.211Z,3.67
2018-06-16T13:20:45.588Z,3.98
2018-06-16T13:23:14.947Z,4.25
2018-06-16T13:25:44.862Z,4.00
2018-06-16T13:28:14.312Z,3.72
2018-06-16T13:30:43.749Z,3.80
2018-06-16T13:33:14.451Z,3.60
2018-06-16T13:35:44.055Z,3.60
2018-06-16T13:38:13.747Z,4.30
2018-06-16T13:40:43.089Z,3.52
2018-06-16T13:43:12.537Z,3.37
2018-06-16T13:45:41.865Z,3.75
2018-06-16T13:48:11.285Z,4.10
2018-06-16T13:50:40.671Z,3.37
2018-06-16T13:53:09.999Z,3.65
2018-06-16T13:55:39.325Z,4.05
2018-06-16T13:58:08.488Z,3.60
2018-06-16T14:00:37.938Z,3.75
2018-06-16T14:03:07.152Z,3.77
2018-06-16T14:05:36.562Z,4.20
2018-06-16T14:08:06.794Z,4.35
2018-06-16T14:10:36.796Z,3.95
2018-06-16T14:13:06.873Z,4.55
2018-06-16T14:15:36.269Z,3.62
2018-06-16T14:18:07.153Z,3.72
2018-06-16T14:20:36.489Z,4.15
2018-06-16T14:23:06.048Z,3.45
2018-06-16T14:25:35.624Z,3.42
2018-06-16T14:28:05.161Z,3.65
2018-06-16T14:30:34.578Z,3.40
2018-06-16T14:33:03.947Z,3.15
2018-06-16T14:35:33.369Z,3.55
2018-06-16T14:38:03.225Z,3.62
2018-06-16T14:40:32.351Z,3.58
2018-06-16T14:43:02.423Z,4.10
2018-06-16T14:45:32.065Z,3.47
2018-06-16T14:48:01.136Z,3.60
2018-06-16T14:50:31.248Z,3.52
2018-06-16T14:53:00.593Z,4.00
2018-06-16T14:55:30.104Z,3.55
2018-06-16T14:57:59.574Z,4.00
2018-06-16T15:00:29.108Z,3.60
2018-06-16T15:02:58.557Z,4.28
2018-06-16T15:05:27.970Z,3.58
2018-06-16T15:07:57.355Z,3.85
2018-06-16T15:10:26.791Z,3.70
2018-06-16T15:12:56.134Z,3.67
2018-06-16T15:15:25.663Z,4.00
2018-06-16T15:17:55.093Z,4.20
2018-06-16T15:20:24.458Z,4.20
2018-06-16T15:22:53.990Z,4.00
2018-06-16T15:25:23.481Z,3.55
2018-06-16T15:27:54.035Z,4.60
2018-06-16T15:30:23.481Z,4.30
2018-06-16T15:32:52.996Z,4.37
2018-06-16T15:35:22.548Z,3.70
2018-06-16T15:37:52.044Z,3.60
2018-06-16T15:40:21.642Z,3.60
2018-06-16T15:42:51.584Z,3.35
2018-06-16T15:45:21.370Z,3.90
2018-06-16T15:47:51.520Z,3.98
2018-06-16T15:50:20.988Z,3.83
2018-06-16T15:52:51.547Z,3.70
2018-06-16T15:55:21.601Z,3.65
2018-06-16T15:57:51.562Z,3.87
2018-06-16T16:00:21.987Z,3.17
2018-06-16T16:02:51.941Z,3.22
2018-06-16T16:05:22.219Z,3.67
2018-06-16T16:07:52.020Z,3.80
2018-06-16T16:10:22.602Z,3.58
2018-06-16T16:12:52.208Z,3.98
2018-06-16T16:15:22.044Z,3.65
2018-06-16T16:17:51.463Z,3.98
2018-06-16T16:20:21.504Z,4.10
2018-06-16T16:22:51.061Z,3.27
2018-06-16T16:25:23.430Z,3.52
2018-06-16T16:27:52.870Z,3.83
2018-06-16T16:30:22.421Z,5.00
2018-06-16T16:32:52.414Z,4.08
2018-06-16T16:35:22.080Z,3.77
2018-06-16T16:37:51.573Z,4.00
2018-06-16T16:40:21.137Z,4.25
2018-06-16T16:42:50.721Z,3.37
2018-06-16T16:45:20.214Z,4.30
2018-06-16T16:47:49.757Z,4.00
2018-06-16T16:50:19.113Z,3.00
2018-06-16T16:52:48.598Z,4.03
2018-06-16T16:55:17.748Z,4.15
2018-06-16T16:57:47.092Z,3.80
2018-06-16T17:00:16.673Z,4.47
2018-06-16T17:02:46.248Z,8.35
2018-06-16T17:05:15.593Z,5.25
2018-06-16T17:07:45.045Z,5.20
2018-06-16T17:10:14.856Z,7.05
2018-06-16T17:12:44.074Z,5.92
2018-06-16T17:15:13.555Z,5.67
2018-06-16T17:17:42.736Z,5.00
2018-06-16T17:20:12.211Z,5.33
2018-06-16T17:22:41.830Z,4.85
2018-06-16T17:25:11.284Z,6.08
2018-06-16T17:27:40.696Z,4.75
2018-06-16T17:30:10.197Z,4.05
2018-06-16T17:32:39.833Z,3.52
2018-06-16T17:35:09.353Z,3.85
2018-06-16T17:37:39.423Z,3.55
2018-06-16T17:40:09.073Z,3.20
2018-06-16T17:42:38.803Z,3.37
2018-06-16T17:45:08.253Z,3.95
2018-06-16T17:47:37.641Z,5.05
2018-06-16T17:50:08.011Z,4.78
2018-06-16T17:52:37.484Z,4.17
2018-06-16T17:55:07.520Z,3.83
2018-06-16T17:57:36.876Z,3.42
2018-06-16T18:00:06.994Z,3.58
2018-06-16T18:02:36.716Z,3.55
2018-06-16T18:05:06.190Z,3.70
2018-06-16T18:07:35.672Z,3.27
2018-06-16T18:10:05.809Z,3.35
2018-06-16T18:12:35.168Z,3.67
2018-06-16T18:15:04.798Z,3.50
2018-06-16T18:17:34.192Z,4.62
2018-06-16T18:20:03.618Z,3.92
2018-06-16T18:22:32.993Z,3.80
2018-06-16T18:25:02.373Z,3.42
2018-06-16T18:27:31.705Z,3.50
2018-06-16T18:30:01.122Z,3.83
2018-06-16T18:32:30.445Z,3.70
2018-06-16T18:34:59.827Z,3.92
2018-06-16T18:37:29.222Z,3.37
2018-06-16T18:39:58.589Z,3.77
2018-06-16T18:42:28.010Z,3.37
2018-06-16T18:44:57.406Z,3.58
2018-06-16T18:47:26.729Z,4.30
2018-06-16T18:49:56.117Z,3.92
2018-06-16T18:52:25.450Z,3.83
2018-06-16T18:54:54.789Z,3.47
2018-06-16T18:57:24.305Z,3.92
2018-06-16T18:59:53.649Z,3.60
2018-06-16T19:02:23.042Z,3.95
2018-06-16T19:04:52.387Z,3.62
2018-06-16T19:07:21.714Z,3.90
2018-06-16T19:09:51.078Z,4.03
2018-06-16T19:12:20.592Z,3.80
2018-06-16T19:14:50.178Z,4.17
2018-06-16T19:17:19.550Z,3.75
2018-06-16T19:19:49.501Z,3.77
2018-06-16T19:22:18.890Z,3.50
2018-06-16T19:24:48.324Z,3.90
2018-06-16T19:27:17.756Z,3.55
2018-06-16T19:29:47.131Z,3.90
2018-06-16T19:32:16.532Z,4.05
2018-06-16T19:34:45.878Z,3.62
2018-06-16T19:37:15.245Z,3.92
2018-06-16T19:39:44.594Z,4.15
2018-06-16T19:42:13.934Z,4.08
2018-06-16T19:44:44.020Z,4.12
2018-06-16T19:47:13.361Z,4.08
2018-06-16T19:49:42.992Z,4.20
2018-06-16T19:52:12.411Z,4.30
2018-06-16T19:54:41.864Z,4.10
2018-06-16T19:57:11.413Z,3.95
2018-06-16T19:59:40.778Z,4.28
2018-06-16T20:02:10.303Z,4.12
2018-06-16T20:04:39.593Z,4.20
2018-06-16T20:07:08.989Z,4.40
2018-06-16T20:09:38.327Z,4.50
2018-06-16T20:12:07.800Z,4.70
2018-06-16T20:14:37.169Z,4.75
2018-06-16T20:17:06.590Z,4.80
2018-06-16T20:19:35.926Z,4.22
2018-06-16T20:22:05.320Z,3.72
2018-06-16T20:24:34.687Z,4.03
2018-06-16T20:27:04.052Z,4.28
2018-06-16T20:29:33.473Z,4.25
2018-06-16T20:32:02.865Z,4.55
2018-06-16T20:34:32.333Z,4.37
2018-06-16T20:37:01.726Z,4.55
2018-06-16T20:39:31.114Z,4.42
2018-06-16T20:42:00.539Z,4.62
2018-06-16T20:44:29.916Z,4.53
2018-06-16T20:46:59.283Z,4.20
2018-06-16T20:49:28.660Z,4.37
2018-06-16T20:51:58.056Z,4.85
2018-06-16T20:54:27.422Z,4.58
2018-06-16T20:56:56.857Z,4.50
2018-06-16T20:59:26.197Z,5.15
2018-06-16T21:01:55.233Z,4.22
2018-06-16T21:04:24.631Z,4.67
2018-06-16T21:06:54.023Z,5.08
2018-06-16T21:09:23.364Z,5.03
2018-06-16T21:11:52.730Z,4.37
2018-06-16T21:14:22.121Z,5.45
2018-06-16T21:16:51.583Z,5.33
2018-06-16T21:19:20.920Z,4.55
2018-06-16T21:21:50.363Z,4.75
2018-06-16T21:24:19.770Z,5.22
2018-06-16T21:26:49.484Z,4.87
2018-06-16T21:29:18.856Z,4.65
2018-06-16T21:31:48.239Z,4.72
2018-06-16T21:34:17.588Z,5.00
2018-06-16T21:36:47.005Z,5.28
2018-06-16T21:39:16.472Z,5.12
2018-06-16T21:41:45.812Z,5.25
2018-06-16T21:44:15.256Z,5.08
2018-06-16T21:46:44.736Z,4.83
2018-06-16T21:49:14.105Z,5.55
2018-06-16T21:51:43.465Z,5.75
2018-06-16T21:54:12.927Z,5.10
2018-06-16T21:56:42.375Z,6.08
2018-06-16T21:59:11.791Z,5.10
2018-06-16T22:01:41.171Z,5.50
2018-06-16T22:04:10.640Z,5.03
2018-06-16T22:06:40.064Z,5.50
2018-06-16T22:09:10.683Z,5.10
2018-06-16T22:11:40.115Z,4.67
2018-06-16T22:14:09.424Z,5.37
2018-06-16T22:16:38.781Z,5.08
2018-06-16T22:19:08.250Z,5.37
2018-06-16T22:21:37.657Z,5.15
2018-06-16T22:24:07.063Z,5.35
2018-06-16T22:26:37.338Z,5.67
2018-06-16T22:29:07.272Z,5.30
2018-06-16T22:31:36.655Z,5.55
2018-06-16T22:34:07.006Z,5.17
2018-06-16T22:36:36.368Z,4.92
2018-06-16T22:39:10.333Z,5.45
2018-06-16T22:41:40.312Z,5.37
2018-06-16T22:44:10.184Z,5.28
2018-06-16T22:46:39.907Z,5.37
2018-06-16T22:49:09.266Z,5.60
2018-06-16T22:51:38.600Z,5.35
2018-06-16T22:54:08.041Z,5.30
2018-06-16T22:56:37.454Z,6.03
2018-06-16T22:59:06.900Z,6.08
2018-06-16T23:01:36.241Z,5.97
2018-06-16T23:04:05.623Z,5.47
2018-06-16T23:06:34.961Z,5.92
2018-06-16T23:09:06.552Z,5.58
2018-06-16T23:11:35.988Z,5.70
2018-06-16T23:14:05.437Z,5.53
2018-06-16T23:16:34.788Z,5.80
2018-06-16T23:19:04.171Z,5.55
2018-06-16T23:21:33.524Z,5.17
2018-06-16T23:24:03.056Z,5.83
2018-06-16T23:26:32.426Z,5.08
2018-06-16T23:29:01.765Z,5.33
2018-06-16T23:31:31.146Z,5.35
2018-06-16T23:34:00.586Z,5.75
2018-06-16T23:36:29.945Z,6.17
2018-06-16T23:38:59.418Z,6.08
2018-06-16T23:41:28.757Z,6.20
2018-06-16T23:43:58.077Z,5.90
2018-06-16T23:46:27.418Z,6.28
2018-06-16T23:48:56.772Z,6.45
2018-06-16T23:51:26.112Z,6.22
2018-06-16T23:53:55.452Z,5.83
2018-06-16T23:56:24.802Z,5.70
2018-06-16T23:58:54.203Z,5.90
